Time;durP1;ratioP1;P1;durP2;ratioP2;P2;SDS_P1;SDS_P2;PMS_P1;PMS_P2;Temp;Humidity;BMP_temperature;BMP_pressure;BME280_temperature;BME280_humidity;BME280_pressure;Samples;Min_cycle;Max_cycle;Signal;HPM_P1;HPM_P2
2021/11/03 00:01:48;;;;;;;32.80;20.35;;;;;;;9.85;96.20;100301.67;1672281;84;21805;-56
2021/11/03 00:04:53;;;;;;;35.43;21.52;;;;;;;9.85;96.02;100294.84;1672396;84;21366;-57
2021/11/03 00:07:59;;;;;;;34.38;22.52;;;;;;;9.79;95.86;100293.67;1671626;84;21608;-56
2021/11/03 00:11:04;;;;;;;32.80;22.48;;;;;;;9.71;95.84;100292.31;1671897;84;21201;-55
2021/11/03 00:14:10;;;;;;;38.80;23.47;;;;;;;9.64;95.89;100298.11;1672131;84;21375;-55
2021/11/03 00:17:15;;;;;;;32.20;21.73;;;;;;;9.58;95.99;100305.64;1671315;84;21213;-55
2021/11/03 00:20:21;;;;;;;35.20;22.67;;;;;;;9.52;96.08;100308.20;1671889;85;21248;-55
2021/11/03 00:23:26;;;;;;;36.15;22.15;;;;;;;9.45;96.12;100312.66;1670690;84;21248;-55
2021/11/03 00:26:31;;;;;;;36.88;23.22;;;;;;;9.39;96.21;100319.63;1672709;84;21228;-56
2021/11/03 00:29:36;;;;;;;36.38;22.55;;;;;;;9.33;96.28;100314.00;1671466;85;21749;-56
2021/11/03 00:32:44;;;;;;;33.90;21.93;;;;;;;9.24;96.31;100317.75;1671190;84;21426;-55
2021/11/03 00:35:49;;;;;;;34.18;21.95;;;;;;;9.12;96.39;100321.84;1671305;86;21367;-56
2021/11/03 00:38:55;;;;;;;36.35;23.60;;;;;;;9.03;96.44;100315.50;1671622;84;21264;-55
2021/11/03 00:42:03;;;;;;;33.50;21.60;;;;;;;8.93;96.58;100322.97;1673104;84;21884;-55
2021/11/03 00:45:10;;;;;;;38.35;23.50;;;;;;;8.82;96.62;100326.88;1671740;85;21217;-55
2021/11/03 00:48:17;;;;;;;34.25;22.95;;;;;;;8.71;96.75;100325.82;1676666;81;21224;-56
2021/11/03 00:51:23;;;;;;;41.88;21.95;;;;;;;8.65;96.89;100333.31;1673170;86;21354;-55
2021/11/03 00:54:28;;;;;;;34.98;22.32;;;;;;;8.56;96.96;100332.08;1673231;86;21190;-55
2021/11/03 00:57:34;;;;;;;39.08;23.50;;;;;;;8.48;97.12;100336.13;1673315;84;21209;-55
2021/11/03 01:00:40;;;;;;;38.80;22.82;;;;;;;8.40;97.25;100341.05;1673091;86;21292;-56
2021/11/03 01:03:47;;;;;;;34.92;22.40;;;;;;;8.33;97.36;100333.16;1658853;85;21213;-55
2021/11/03 01:06:53;;;;;;;33.92;23.35;;;;;;;8.29;97.55;100342.66;1673230;84;21304;-55
2021/11/03 01:09:59;;;;;;;34.70;21.00;;;;;;;8.24;97.74;100340.09;1673152;86;21193;-56
2021/11/03 01:13:05;;;;;;;34.15;21.82;;;;;;;8.21;97.92;100337.16;1673203;84;21852;-57
2021/11/03 01:16:10;;;;;;;38.05;23.73;;;;;;;8.21;98.11;100328.12;1673126;86;21359;-56
2021/11/03 01:19:17;;;;;;;40.78;24.52;;;;;;;8.18;98.23;100326.55;1673223;86;21343;-57
2021/11/03 01:22:22;;;;;;;37.60;22.90;;;;;;;8.17;98.21;100332.17;1673216;84;21335;-56
2021/11/03 01:25:29;;;;;;;37.23;23.98;;;;;;;8.13;98.17;100317.16;1673090;86;21236;-56
2021/11/03 01:28:36;;;;;;;36.35;22.22;;;;;;;8.11;98.24;100341.00;1673115;84;21201;-56
2021/11/03 01:31:42;;;;;;;35.70;22.58;;;;;;;8.09;98.25;100374.38;1673124;84;21340;-55
2021/11/03 01:34:48;;;;;;;38.28;21.82;;;;;;;8.10;98.35;100363.84;1673129;86;21434;-56
2021/11/03 01:37:56;;;;;;;35.52;22.17;;;;;;;8.14;98.36;100361.12;1673077;84;21382;-56
2021/11/03 01:41:04;;;;;;;34.63;22.32;;;;;;;8.16;98.32;100359.09;1673094;86;21205;-56
2021/11/03 01:44:16;;;;;;;31.30;21.85;;;;;;;8.20;98.47;100368.65;1673219;86;21213;-56
2021/11/03 01:47:45;;;;;;;32.60;21.20;;;;;;;8.23;98.56;100363.77;1673053;84;21362;-55
2021/11/03 01:51:00;;;;;;;37.42;21.82;;;;;;;8.30;98.57;100362.62;1699338;82;21940;-56
2021/11/03 01:54:06;;;;;;;38.50;24.47;;;;;;;8.32;98.67;100367.41;1702005;84;21252;-56
2021/11/03 01:57:12;;;;;;;36.83;23.22;;;;;;;8.36;98.78;100374.23;1702023;83;21374;-57
2021/11/03 02:00:25;;;;;;;38.80;23.92;;;;;;;8.41;98.88;100364.57;1702032;84;21220;-56
2021/11/03 02:03:34;;;;;;;37.20;23.45;;;;;;;8.46;98.98;100383.17;1702034;83;21217;-54
2021/11/03 02:06:40;;;;;;;41.28;23.60;;;;;;;8.51;99.04;100379.45;1702009;83;21347;-55
2021/11/03 02:09:47;;;;;;;41.40;25.60;;;;;;;8.51;99.00;100385.77;1702010;84;21355;-56
2021/11/03 02:12:53;;;;;;;38.23;24.37;;;;;;;8.52;99.02;100394.79;1701950;83;21355;-55
2021/11/03 02:15:59;;;;;;;43.08;25.55;;;;;;;8.54;99.03;100405.91;1702003;84;21367;-57
2021/11/03 02:19:07;;;;;;;45.73;26.50;;;;;;;8.56;99.01;100404.38;1702045;84;21738;-55
2021/11/03 02:22:30;;;;;;;40.90;25.57;;;;;;;8.59;98.97;100406.78;1702164;83;21241;-56
2021/11/03 02:25:43;;;;;;;39.23;24.75;;;;;;;8.58;98.87;100415.46;1702027;84;21217;-57
2021/11/03 02:28:52;;;;;;;41.50;26.27;;;;;;;8.58;98.87;100404.55;1702036;83;21212;-56
2021/11/03 02:32:02;;;;;;;45.38;27.32;;;;;;;8.59;98.92;100417.69;1702095;83;21371;-56
2021/11/03 02:35:07;;;;;;;42.83;25.55;;;;;;;8.62;98.93;100421.45;1702031;84;21324;-55
2021/11/03 02:38:13;;;;;;;43.05;26.10;;;;;;;8.64;98.92;100420.80;1702026;83;21284;-56
2021/11/03 02:41:30;;;;;;;41.92;26.02;;;;;;;8.66;98.92;100413.28;1702045;83;21177;-56
2021/11/03 02:44:35;;;;;;;40.50;26.25;;;;;;;8.67;98.90;100413.11;1702121;84;21358;-56
2021/11/03 02:47:41;;;;;;;38.42;24.10;;;;;;;8.71;98.95;100415.02;1702000;83;21189;-55
2021/11/03 02:51:05;;;;;;;42.75;25.30;;;;;;;8.73;98.89;100417.08;1693633;81;21462;-57
2021/11/03 02:54:18;;;;;;;43.08;24.95;;;;;;;8.75;98.84;100410.95;1673168;86;21197;-57
2021/11/03 02:57:25;;;;;;;40.85;23.85;;;;;;;8.77;98.79;100403.44;1673114;84;21233;-57
2021/11/03 03:00:30;;;;;;;39.53;24.85;;;;;;;8.79;98.78;100405.50;1673186;86;21217;-57
2021/11/03 03:03:37;;;;;;;40.00;25.00;;;;;;;8.79;98.78;100400.05;1673053;84;21367;-56
2021/11/03 03:06:42;;;;;;;43.15;25.27;;;;;;;8.80;98.67;100401.77;1673128;84;21339;-56
2021/11/03 03:09:48;;;;;;;40.05;25.55;;;;;;;8.78;98.56;100396.98;1673095;86;21229;-56
2021/11/03 03:12:55;;;;;;;43.92;27.15;;;;;;;8.79;98.50;100406.86;1673087;84;21229;-55
2021/11/03 03:16:01;;;;;;;42.73;26.50;;;;;;;8.79;98.42;100414.55;1673049;86;21343;-56
2021/11/03 03:19:08;;;;;;;48.33;28.27;;;;;;;8.79;98.33;100412.32;1673052;86;21301;-55
2021/11/03 03:22:12;;;;;;;45.92;27.90;;;;;;;8.81;98.26;100411.66;1673016;84;21272;-57
2021/11/03 03:25:22;;;;;;;45.48;28.57;;;;;;;8.80;98.19;100412.16;1673167;86;21880;-57
2021/11/03 03:28:28;;;;;;;45.23;27.77;;;;;;;8.81;98.11;100418.48;1673285;84;21351;-57
2021/11/03 03:31:34;;;;;;;44.10;27.10;;;;;;;8.82;98.07;100422.91;1673162;86;21351;-56
2021/11/03 03:34:40;;;;;;;46.13;27.05;;;;;;;8.84;98.04;100426.34;1673253;86;21292;-55
2021/11/03 03:37:49;;;;;;;44.03;27.67;;;;;;;8.88;97.96;100427.21;1673145;84;21217;-56
2021/11/03 03:40:55;;;;;;;43.75;27.42;;;;;;;8.91;97.92;100425.52;1673235;86;21911;-56
2021/11/03 03:44:07;;;;;;;45.58;27.48;;;;;;;8.96;97.83;100426.38;1673163;86;21822;-55
2021/11/03 03:47:15;;;;;;;43.40;26.30;;;;;;;8.97;97.70;100415.83;1673200;84;21351;-56
2021/11/03 03:50:22;;;;;;;47.67;28.47;;;;;;;9.01;97.64;100411.73;1673019;86;21236;-55
2021/11/03 03:53:28;;;;;;;47.93;27.60;;;;;;;9.02;97.53;100407.47;1673721;82;21431;-55
2021/11/03 03:56:37;;;;;;;42.30;26.50;;;;;;;9.04;97.54;100405.44;1673123;84;21372;-56
2021/11/03 03:59:43;;;;;;;43.80;26.45;;;;;;;9.07;97.44;100406.97;1673131;86;21383;-56
2021/11/03 04:02:52;;;;;;;43.42;26.68;;;;;;;9.09;97.31;100409.03;1673118;84;21351;-53
2021/11/03 04:06:00;;;;;;;45.33;27.25;;;;;;;9.10;97.11;100417.05;1673196;86;21682;-54
2021/11/03 04:09:06;;;;;;;47.23;26.97;;;;;;;9.10;96.93;100423.87;1672885;86;21406;-53
2021/11/03 04:12:14;;;;;;;46.37;27.58;;;;;;;9.10;96.69;100416.22;1673131;84;21273;-54
2021/11/03 04:15:20;;;;;;;52.55;29.48;;;;;;;9.10;96.57;100413.49;1673184;86;21339;-55
2021/11/03 04:18:26;;;;;;;51.73;28.57;;;;;;;9.10;96.52;100410.76;1673140;84;21403;-54
2021/11/03 04:21:33;;;;;;;52.62;29.42;;;;;;;9.09;96.32;100417.22;1673166;86;21730;-54
2021/11/03 04:24:41;;;;;;;53.23;30.85;;;;;;;9.08;96.22;100419.62;1673140;86;21185;-54
2021/11/03 04:27:47;;;;;;;53.87;32.03;;;;;;;9.07;96.13;100416.02;1673198;84;21225;-54
2021/11/03 04:30:53;;;;;;;57.08;33.40;;;;;;;9.08;96.01;100423.72;1673104;86;21757;-53
2021/11/03 04:33:59;;;;;;;58.98;34.25;;;;;;;9.06;95.93;100418.92;1673120;84;21394;-52
2021/11/03 04:37:06;;;;;;;61.58;36.40;;;;;;;9.06;95.90;100419.78;1673206;84;21229;-54
2021/11/03 04:40:14;;;;;;;60.45;35.83;;;;;;;9.07;95.88;100420.12;1673108;86;21352;-54
2021/11/03 04:43:20;;;;;;;63.65;36.58;;;;;;;9.05;95.83;100414.49;1673141;84;21356;-54
2021/11/03 04:46:26;;;;;;;63.87;36.38;;;;;;;9.04;95.77;100419.09;1657341;86;21335;-55
2021/11/03 04:49:35;;;;;;;64.85;35.78;;;;;;;9.06;95.78;100426.61;1673221;86;21453;-54
2021/11/03 04:52:42;;;;;;;64.53;37.25;;;;;;;9.05;95.78;100421.31;1677404;82;21232;-55
2021/11/03 04:55:55;;;;;;;61.40;36.75;;;;;;;9.07;95.76;100424.72;1702071;84;21181;-55
2021/11/03 04:59:03;;;;;;;69.45;36.77;;;;;;;9.07;95.69;100428.81;1702082;84;21344;-56
2021/11/03 05:02:11;;;;;;;67.82;35.65;;;;;;;9.07;95.75;100426.95;1702177;83;21235;-55
2021/11/03 05:05:18;;;;;;;59.67;33.58;;;;;;;9.09;95.84;100438.56;1702165;84;21840;-55
2021/11/03 05:08:24;;;;;;;62.78;34.23;;;;;;;9.10;95.86;100437.53;1702060;83;21201;-55
2021/11/03 05:11:30;;;;;;;60.65;32.42;;;;;;;9.11;95.82;100447.95;1701938;84;21467;-55
2021/11/03 05:14:37;;;;;;;59.73;32.88;;;;;;;9.15;95.96;100449.32;1701988;84;21213;-54
2021/11/03 05:17:45;;;;;;;52.80;31.37;;;;;;;9.17;95.98;100448.66;1701961;83;21406;-56
2021/11/03 05:20:52;;;;;;;50.58;29.57;;;;;;;9.18;95.97;100444.06;1701994;84;21217;-56
2021/11/03 05:23:58;;;;;;;49.42;29.12;;;;;;;9.19;96.04;100457.55;1701429;83;21264;-55
2021/11/03 05:27:07;;;;;;;53.50;30.12;;;;;;;9.21;96.04;100461.48;1701852;83;21228;-54
2021/11/03 05:30:17;;;;;;;49.48;30.35;;;;;;;9.22;96.08;100474.10;1701680;84;21481;-54
2021/11/03 05:33:23;;;;;;;55.88;29.90;;;;;;;9.25;96.11;100471.91;1670526;86;21264;-54
2021/11/03 05:36:33;;;;;;;51.45;29.18;;;;;;;9.28;96.13;100476.17;1671639;86;21279;-55
2021/11/03 05:39:39;;;;;;;53.83;30.25;;;;;;;9.33;96.12;100480.63;1684759;84;21255;-55
2021/11/03 05:42:47;;;;;;;48.40;29.12;;;;;;;9.37;96.12;100479.30;1671892;84;21248;-55
2021/11/03 05:45:54;;;;;;;46.25;28.23;;;;;;;9.39;96.06;100479.45;1662915;85;21276;-55
2021/11/03 05:49:05;;;;;;;45.55;28.17;;;;;;;9.43;96.04;100473.16;1637268;86;21213;-54
2021/11/03 05:52:11;;;;;;;49.08;28.38;;;;;;;9.46;95.99;100476.42;1631264;87;21256;-55
2021/11/03 05:55:16;;;;;;;48.90;29.70;;;;;;;9.49;95.98;100481.55;1681415;81;21763;-55
2021/11/03 05:58:24;;;;;;;55.23;30.95;;;;;;;9.54;96.01;100485.14;1666595;85;21228;-55
2021/11/03 06:01:31;;;;;;;52.30;33.15;;;;;;;9.58;95.99;100479.67;1672419;85;21182;-55
2021/11/03 06:04:39;;;;;;;55.88;32.55;;;;;;;9.62;95.96;100474.23;1674783;85;21217;-55
2021/11/03 06:07:46;;;;;;;59.90;34.53;;;;;;;9.64;95.92;100475.77;1673540;84;21795;-56
2021/11/03 06:10:54;;;;;;;57.23;34.80;;;;;;;9.69;95.95;100478.85;1650770;86;21201;-55
2021/11/03 06:14:03;;;;;;;59.33;34.55;;;;;;;9.75;95.93;100480.91;1648027;86;21229;-56
2021/11/03 06:17:12;;;;;;;72.30;42.62;;;;;;;9.82;95.84;100488.80;1647974;86;21626;-56
2021/11/03 06:20:18;;;;;;;57.88;32.23;;;;;;;9.88;95.82;100492.22;1651185;86;21216;-56
2021/11/03 06:23:24;;;;;;;56.08;32.67;;;;;;;9.95;95.75;100489.66;1647949;85;21223;-55
2021/11/03 06:26:32;;;;;;;58.90;34.60;;;;;;;10.01;95.58;100493.95;1652315;86;21223;-55
2021/11/03 06:29:38;;;;;;;70.30;38.00;;;;;;;10.03;95.43;100489.17;1650960;86;21267;-55
2021/11/03 06:32:44;;;;;;;62.53;36.13;;;;;;;10.10;95.40;100509.36;1651944;85;21243;-53
2021/11/03 06:35:53;;;;;;;58.33;34.43;;;;;;;10.15;95.30;100511.08;1649376;86;21208;-55
2021/11/03 06:38:58;;;;;;;59.18;33.45;;;;;;;10.19;95.16;100511.11;1653156;85;21267;-53
2021/11/03 06:42:04;;;;;;;58.25;33.65;;;;;;;10.22;95.11;100514.86;1651479;85;21247;-54
2021/11/03 06:45:15;;;;;;;55.38;32.60;;;;;;;10.28;95.01;100516.91;1653594;86;21802;-55
2021/11/03 06:48:19;;;;;;;61.90;36.75;;;;;;;10.31;94.84;100520.67;1649654;84;21539;-54
2021/11/03 06:51:26;;;;;;;61.28;36.80;;;;;;;10.36;94.82;100523.75;1655264;85;21200;-54
2021/11/03 06:54:32;;;;;;;62.20;35.30;;;;;;;10.41;94.72;100515.02;1655935;85;21268;-55
2021/11/03 06:57:38;;;;;;;73.33;40.63;;;;;;;10.46;94.65;100503.89;1672420;85;21749;-56
2021/11/03 07:00:47;;;;;;;63.78;37.08;;;;;;;10.52;94.61;100495.02;1678960;84;21212;-56
2021/11/03 07:03:54;;;;;;;63.30;35.15;;;;;;;10.61;94.59;100482.15;1677603;85;21213;-54
2021/11/03 07:06:59;;;;;;;75.50;40.70;;;;;;;10.72;94.42;100478.22;1672350;84;21610;-55
2021/11/03 07:10:05;;;;;;;84.52;45.45;;;;;;;10.81;94.03;100486.74;1692630;84;21359;-55
2021/11/03 07:13:11;;;;;;;84.28;42.75;;;;;;;10.84;93.78;100489.99;1678572;85;21256;-55
2021/11/03 07:16:20;;;;;;;69.60;38.67;;;;;;;10.83;93.28;100497.84;1678515;85;21752;-54
2021/11/03 07:19:26;;;;;;;65.37;37.05;;;;;;;10.84;93.37;100498.71;1671834;85;21286;-55
2021/11/03 07:22:32;;;;;;;67.60;37.03;;;;;;;10.85;93.22;100494.93;1677622;85;22030;-56
2021/11/03 07:25:37;;;;;;;74.70;39.05;;;;;;;10.87;93.28;100497.85;1671925;85;21325;-55
2021/11/03 07:28:43;;;;;;;72.87;39.83;;;;;;;10.90;93.24;100492.02;1676616;85;21240;-56
2021/11/03 07:31:49;;;;;;;80.40;42.85;;;;;;;10.98;93.32;100484.29;1677836;83;21264;-54
2021/11/03 07:34:54;;;;;;;65.78;34.92;;;;;;;11.08;93.29;100479.47;1657321;85;21209;-53
2021/11/03 07:38:00;;;;;;;60.28;34.50;;;;;;;11.15;93.16;100481.83;1686927;84;21564;-54
2021/11/03 07:41:06;;;;;;;55.75;32.13;;;;;;;11.22;93.01;100483.70;1678678;85;21765;-55
2021/11/03 07:44:16;;;;;;;57.13;30.70;;;;;;;11.30;92.87;100488.28;1681220;84;21335;-55
2021/11/03 07:47:22;;;;;;;48.73;29.87;;;;;;;11.35;92.65;100488.61;1673800;84;21350;-54
2021/11/03 07:50:31;;;;;;;49.70;29.52;;;;;;;11.39;92.47;100494.06;1676620;85;21209;-55
2021/11/03 07:53:37;;;;;;;50.10;29.05;;;;;;;11.43;92.25;100485.84;1679368;84;21217;-56
2021/11/03 07:56:45;;;;;;;54.38;30.25;;;;;;;11.47;92.19;100484.42;1641094;83;21600;-55
2021/11/03 07:59:50;;;;;;;55.50;31.42;;;;;;;11.51;92.06;100491.28;1617602;88;21243;-56
2021/11/03 08:02:59;;;;;;;47.40;28.55;;;;;;;11.52;91.74;100499.83;1658851;85;21307;-54
2021/11/03 08:06:06;;;;;;;49.38;29.27;;;;;;;11.48;91.68;100495.22;1676864;85;21247;-55
2021/11/03 08:09:14;;;;;;;53.70;30.15;;;;;;;11.51;91.83;100500.88;1674615;85;21274;-55
2021/11/03 08:12:19;;;;;;;48.92;28.57;;;;;;;11.52;91.79;100503.44;1674663;84;21228;-54
2021/11/03 08:15:25;;;;;;;53.17;31.85;;;;;;;11.51;91.67;100507.73;1676239;85;21227;-55
2021/11/03 08:18:34;;;;;;;55.75;32.00;;;;;;;11.49;91.73;100512.53;1677703;84;21582;-54
2021/11/03 08:21:40;;;;;;;53.10;28.73;;;;;;;11.49;91.91;100501.56;1675438;85;21268;-55
2021/11/03 08:24:45;;;;;;;51.20;30.52;;;;;;;11.57;92.16;100501.52;1678446;84;21828;-56
2021/11/03 08:27:51;;;;;;;51.75;30.37;;;;;;;11.64;92.18;100500.65;1677977;85;21590;-54
2021/11/03 08:30:58;;;;;;;52.98;29.18;;;;;;;11.73;92.21;100510.53;1678087;85;21248;-54
2021/11/03 08:34:05;;;;;;;49.45;30.57;;;;;;;11.76;92.00;100501.11;1677776;85;21729;-54
2021/11/03 08:37:15;;;;;;;49.77;30.08;;;;;;;11.76;91.99;100514.82;1677934;85;21805;-54
2021/11/03 08:40:24;;;;;;;54.80;31.57;;;;;;;11.73;91.89;100517.92;1677600;85;21186;-55
2021/11/03 08:43:31;;;;;;;54.20;30.17;;;;;;;11.68;91.79;100517.61;1678226;85;21271;-55
2021/11/03 08:46:38;;;;;;;46.85;28.23;;;;;;;11.62;91.75;100525.15;1678433;85;21571;-55
2021/11/03 08:49:44;;;;;;;47.17;28.32;;;;;;;11.55;91.86;100524.14;1678683;85;21403;-54
2021/11/03 08:52:52;;;;;;;50.00;28.12;;;;;;;11.52;92.01;100513.54;1679172;85;21296;-54
2021/11/03 08:56:01;;;;;;;50.78;29.32;;;;;;;11.50;92.11;100514.22;1673809;85;21524;-54
2021/11/03 08:59:07;;;;;;;51.85;28.73;;;;;;;11.46;92.24;100502.78;1699427;83;21286;-54
2021/11/03 09:02:13;;;;;;;50.58;29.23;;;;;;;11.50;92.47;100503.26;1650029;85;21235;-54
2021/11/03 09:05:19;;;;;;;47.93;30.43;;;;;;;11.57;92.64;100507.87;1660972;85;21280;-55
2021/11/03 09:08:26;;;;;;;47.73;28.90;;;;;;;11.61;92.62;100502.86;1672325;85;21312;-55
2021/11/03 09:11:32;;;;;;;48.92;29.07;;;;;;;11.61;92.71;100502.35;1677303;85;21235;-54
2021/11/03 09:14:37;;;;;;;46.37;28.17;;;;;;;11.66;92.82;100503.21;1711613;83;21244;-55
2021/11/03 09:17:44;;;;;;;47.03;29.07;;;;;;;11.67;92.73;100507.68;1674993;85;21481;-55
2021/11/03 09:20:49;;;;;;;47.95;27.55;;;;;;;11.64;92.74;100508.02;1672693;85;21220;-53
2021/11/03 09:23:55;;;;;;;51.73;30.02;;;;;;;11.62;92.81;100510.07;1709879;83;21232;-54
2021/11/03 09:27:01;;;;;;;53.65;30.62;;;;;;;11.59;92.94;100521.40;1674542;84;21264;-55
2021/11/03 09:30:10;;;;;;;51.08;31.07;;;;;;;11.57;93.08;100517.97;1685127;85;21212;-55
2021/11/03 09:33:16;;;;;;;52.62;30.88;;;;;;;11.52;93.18;100506.17;1653216;85;21284;-55
2021/11/03 09:36:26;;;;;;;50.45;29.07;;;;;;;11.52;93.50;100509.42;1678682;85;21402;-55
2021/11/03 09:39:31;;;;;;;50.90;30.77;;;;;;;11.52;93.71;100505.31;1712796;84;21844;-54
2021/11/03 09:42:38;;;;;;;49.30;29.67;;;;;;;11.51;93.87;100504.98;1698097;82;22279;-56
2021/11/03 09:45:44;;;;;;;47.10;29.85;;;;;;;11.53;94.18;100504.27;1635811;85;21327;-55
2021/11/03 09:48:50;;;;;;;53.73;30.35;;;;;;;11.55;94.39;100507.69;1712032;84;21235;-54
2021/11/03 09:52:05;;;;;;;52.17;31.05;;;;;;;11.58;94.61;100508.70;1674779;85;22023;-55
2021/11/03 09:55:27;;;;;;;47.80;30.48;;;;;;;11.61;94.88;100504.23;1677924;85;21216;-54
2021/11/03 09:59:00;;;;;;;46.58;29.02;;;;;;;11.68;95.04;100512.13;1678594;82;21410;-54
2021/11/03 10:02:11;;;;;;;49.30;29.63;;;;;;;11.74;95.23;100509.52;1681146;85;21907;-55
2021/11/03 10:05:27;;;;;;;42.17;27.35;;;;;;;11.84;95.41;100516.98;1670649;85;21415;-55
2021/11/03 10:08:37;;;;;;;39.78;26.35;;;;;;;11.90;95.39;100509.92;1677185;85;21438;-54
2021/11/03 10:11:46;;;;;;;42.35;26.60;;;;;;;11.90;95.34;100514.05;1713970;83;21252;-54
2021/11/03 10:14:53;;;;;;;40.88;26.00;;;;;;;11.89;95.33;100512.34;1675368;85;21321;-56
2021/11/03 10:18:18;;;;;;;38.70;26.07;;;;;;;11.89;95.38;100510.98;1715273;83;21511;-55
2021/11/03 10:21:33;;;;;;;38.67;24.77;;;;;;;11.87;95.39;100515.78;1677174;85;21197;-56
2021/11/03 10:24:48;;;;;;;42.85;26.00;;;;;;;11.91;95.63;100508.88;1675992;85;21799;-53
2021/11/03 10:28:04;;;;;;;40.95;25.20;;;;;;;11.92;95.73;100507.87;1674299;84;21240;-56
2021/11/03 10:31:10;;;;;;;45.30;27.15;;;;;;;11.92;95.76;100505.95;1708918;84;21334;-53
2021/11/03 10:34:35;;;;;;;40.90;25.25;;;;;;;11.91;95.91;100511.63;1688731;83;21220;-53
2021/11/03 10:37:46;;;;;;;44.05;26.80;;;;;;;11.92;95.96;100511.98;1686720;85;21328;-53
2021/11/03 10:41:05;;;;;;;47.48;28.30;;;;;;;11.88;96.03;100505.13;1686702;85;21204;-55
2021/11/03 10:44:29;;;;;;;44.88;26.95;;;;;;;11.89;96.23;100497.26;1709072;83;21189;-55
2021/11/03 10:47:34;;;;;;;42.88;27.55;;;;;;;11.89;96.33;100491.23;1676875;85;21237;-55
2021/11/03 10:50:43;;;;;;;42.20;26.95;;;;;;;11.92;96.51;100493.61;1715740;83;21754;-55
2021/11/03 10:53:56;;;;;;;50.12;29.23;;;;;;;11.94;96.53;100498.41;1677475;85;21367;-55
2021/11/03 10:57:05;;;;;;;47.75;28.35;;;;;;;11.95;96.56;100495.16;1715273;83;21371;-55
2021/11/03 11:00:33;;;;;;;49.93;29.30;;;;;;;11.97;96.72;100498.58;1676875;83;21833;-53
2021/11/03 11:04:13;;;;;;;46.13;27.70;;;;;;;11.96;96.73;100496.84;1678941;85;21356;-53
2021/11/03 11:07:36;;;;;;;48.78;29.02;;;;;;;11.97;96.85;100491.18;1712587;83;21756;-53
2021/11/03 11:10:59;;;;;;;52.70;30.23;;;;;;;11.94;96.99;100491.55;1713174;83;21803;-55
2021/11/03 11:14:11;;;;;;;47.13;29.75;;;;;;;11.95;97.17;100494.65;1678568;85;21276;-55
2021/11/03 11:17:33;;;;;;;51.28;30.82;;;;;;;11.99;97.36;100494.60;1677997;84;21296;-55
2021/11/03 11:20:49;;;;;;;47.80;28.17;;;;;;;11.98;97.43;100485.19;1704868;84;21309;-55
2021/11/03 11:24:07;;;;;;;45.78;29.02;;;;;;;11.97;97.64;100491.18;1676633;85;21257;-54
2021/11/03 11:27:23;;;;;;;51.28;30.48;;;;;;;11.98;97.80;100494.79;1677137;84;21832;-54
2021/11/03 11:30:33;;;;;;;47.50;29.12;;;;;;;11.97;97.94;100499.41;1666955;85;21801;-54
2021/11/03 11:33:43;;;;;;;52.58;30.95;;;;;;;12.00;98.11;100500.42;1662192;85;21244;-56
2021/11/03 11:37:08;;;;;;;52.43;31.97;;;;;;;12.02;98.27;100501.60;1684832;85;21734;-55
2021/11/03 11:40:40;;;;;;;49.98;30.72;;;;;;;12.04;98.33;100503.66;1704869;83;21220;-56
2021/11/03 11:44:04;;;;;;;49.23;30.40;;;;;;;12.06;98.47;100504.34;1710445;82;21231;-55
2021/11/03 11:47:14;;;;;;;44.85;27.90;;;;;;;12.07;98.58;100508.77;1676213;84;21302;-55
2021/11/03 11:50:50;;;;;;;48.28;30.05;;;;;;;12.08;98.70;100498.16;1670128;84;21192;-56
2021/11/03 11:54:04;;;;;;;49.23;30.72;;;;;;;12.10;98.80;100506.20;1665161;85;21235;-55
2021/11/03 11:57:24;;;;;;;48.68;30.27;;;;;;;12.13;99.02;100502.55;1703005;82;21226;-55
2021/11/03 12:00:31;;;;;;;52.00;31.33;;;;;;;12.15;99.09;100511.46;1701572;82;21216;-54
2021/11/03 12:03:37;;;;;;;53.50;33.78;;;;;;;12.17;99.25;100511.28;1679017;85;21244;-56
2021/11/03 12:07:06;;;;;;;59.75;36.23;;;;;;;12.18;99.30;100515.21;1662845;85;21255;-56
2021/11/03 12:10:33;;;;;;;58.60;35.08;;;;;;;12.19;99.34;100519.69;1666227;85;21221;-56
2021/11/03 12:14:07;;;;;;;58.65;35.15;;;;;;;12.19;99.38;100520.19;1673070;83;21234;-55
2021/11/03 12:17:27;;;;;;;55.38;34.05;;;;;;;12.20;99.51;100523.26;1646029;85;21555;-55
2021/11/03 12:20:40;;;;;;;53.20;33.48;;;;;;;12.20;99.60;100520.52;1681928;85;21198;-54
2021/11/03 12:24:03;;;;;;;65.37;38.13;;;;;;;12.20;99.66;100521.38;1645415;86;21235;-54
2021/11/03 12:27:35;;;;;;;72.32;41.37;;;;;;;12.19;99.67;100526.55;1642576;85;21566;-54
2021/11/03 12:30:52;;;;;;;65.17;41.00;;;;;;;12.20;99.79;100529.61;1680050;85;21275;-56
2021/11/03 12:34:14;;;;;;;62.90;38.08;;;;;;;12.19;99.87;100530.66;1641149;87;21545;-57
2021/11/03 12:37:28;;;;;;;58.98;34.92;;;;;;;12.20;100.00;100535.10;1675535;84;21279;-57
2021/11/03 12:40:48;;;;;;;57.20;36.03;;;;;;;12.20;100.00;100535.61;1679768;85;21201;-55
2021/11/03 12:44:00;;;;;;;55.15;35.45;;;;;;;12.20;100.00;100531.50;1646896;85;21197;-56
2021/11/03 12:47:07;;;;;;;50.52;33.67;;;;;;;12.19;100.00;100540.27;1676325;84;21212;-55
2021/11/03 12:50:25;;;;;;;56.55;35.25;;;;;;;12.19;100.00;100540.27;1679240;85;21223;-56
2021/11/03 12:53:38;;;;;;;50.38;33.25;;;;;;;12.19;100.00;100544.38;1678028;84;21280;-58
2021/11/03 12:56:46;;;;;;;46.85;31.40;;;;;;;12.18;100.00;100545.40;1679953;84;21276;-56
2021/11/03 12:59:54;;;;;;;45.75;31.87;;;;;;;12.17;100.00;100545.08;1680307;84;21240;-56
2021/11/03 13:03:07;;;;;;;43.85;30.15;;;;;;;12.16;100.00;100543.89;1675196;82;21231;-56
2021/11/03 13:06:13;;;;;;;46.85;31.57;;;;;;;12.15;100.00;100551.77;1666611;85;21221;-55
2021/11/03 13:09:40;;;;;;;45.05;29.67;;;;;;;12.13;100.00;100556.60;1674272;85;21486;-56
2021/11/03 13:12:49;;;;;;;46.90;31.75;;;;;;;12.11;100.00;100554.05;1683973;83;21234;-56
2021/11/03 13:16:10;;;;;;;53.63;34.35;;;;;;;12.11;100.00;100559.53;1676688;83;21554;-54
2021/11/03 13:19:36;;;;;;;49.85;33.92;;;;;;;12.10;100.00;100552.31;1651977;85;21639;-56
2021/11/03 13:22:49;;;;;;;47.60;32.38;;;;;;;12.10;100.00;100561.91;1675798;85;21248;-56
2021/11/03 13:26:03;;;;;;;45.55;32.17;;;;;;;12.10;100.00;100565.20;1679003;85;21273;-56
2021/11/03 13:29:10;;;;;;;43.30;30.57;;;;;;;12.10;100.00;100574.81;1679680;85;22153;-55
2021/11/03 13:32:31;;;;;;;45.52;29.35;;;;;;;12.09;100.00;100573.94;1674028;84;21201;-56
2021/11/03 13:35:42;;;;;;;;;;;;;;;12.09;100.00;100576.69;1679944;85;21235;-55
2021/11/03 13:39:06;;;;;;;36.75;26.77;;;;;;;12.09;100.00;100583.55;1685098;84;20557;-56
2021/11/03 13:42:34;;;;;;;42.70;28.20;;;;;;;12.07;100.00;100584.23;1663758;85;21773;-55
2021/11/03 13:45:48;;;;;;;39.63;27.75;;;;;;;12.06;100.00;100590.77;1631396;87;21264;-57
2021/11/03 13:48:59;;;;;;;39.73;28.05;;;;;;;12.05;100.00;100597.27;1670434;85;21547;-55
2021/11/03 13:52:21;;;;;;;40.88;28.42;;;;;;;12.03;100.00;100593.88;1698276;83;21302;-56
2021/11/03 13:55:30;;;;;;;42.98;30.70;;;;;;;12.02;100.00;100604.50;1697630;83;21563;-55
2021/11/03 13:58:43;;;;;;;40.73;28.47;;;;;;;12.00;100.00;100599.73;1677665;85;21575;-55
2021/11/03 14:01:57;;;;;;;46.85;31.85;;;;;;;12.00;100.00;100599.73;1676621;85;21351;-55
2021/11/03 14:05:04;;;;;;;45.38;30.75;;;;;;;11.99;100.00;100596.63;1655369;85;21284;-56
2021/11/03 14:08:10;;;;;;;43.92;30.52;;;;;;;12.00;100.00;100602.47;1661200;84;21256;-57
2021/11/03 14:11:21;;;;;;;44.77;30.27;;;;;;;11.98;100.00;100597.17;1686710;84;21268;-56
2021/11/03 14:14:28;;;;;;;44.83;31.10;;;;;;;11.98;100.00;100601.28;1674466;85;21718;-56
2021/11/03 14:17:47;;;;;;;48.05;32.45;;;;;;;11.99;100.00;100604.86;1705796;84;21236;-55
2021/11/03 14:20:58;;;;;;;50.15;31.85;;;;;;;11.99;100.00;100608.47;1673745;85;21230;-56
2021/11/03 14:24:04;;;;;;;46.65;31.73;;;;;;;12.02;100.00;100599.87;1663214;85;21647;-56
2021/11/03 14:27:09;;;;;;;46.90;31.40;;;;;;;12.04;100.00;100592.33;1655871;85;21296;-56